createdAt,value
2019-03-19T00:00:16.124Z,79.49
2019-03-19T00:02:25.567Z,79.36
2019-03-19T00:04:32.327Z,79.59
2019-03-19T00:06:40.028Z,79.66
2019-03-19T00:08:49.758Z,79.77
2019-03-19T00:10:58.392Z,79.68
2019-03-19T00:13:04.953Z,79.69
2019-03-19T00:15:13.207Z,79.69
2019-03-19T00:17:19.569Z,79.56
2019-03-19T00:19:26.076Z,79.07
2019-03-19T00:21:34.187Z,78.78
2019-03-19T00:23:40.636Z,78.54
2019-03-19T00:25:47.415Z,78.12
2019-03-19T00:27:53.788Z,78.31
2019-03-19T00:30:03.429Z,78.05
2019-03-19T00:32:10.006Z,77.96
2019-03-19T00:34:16.568Z,77.96
2019-03-19T00:36:23.250Z,77.92
2019-03-19T00:38:29.789Z,77.83
2019-03-19T00:40:37.714Z,78.01
2019-03-19T00:42:44.628Z,78.16
2019-03-19T00:44:51.403Z,78.30
2019-03-19T00:46:57.934Z,78.48
2019-03-19T00:49:06.730Z,78.23
2019-03-19T00:51:12.474Z,78.23
2019-03-19T00:53:19.168Z,78.19
2019-03-19T00:55:25.605Z,78.13
2019-03-19T00:57:32.181Z,78.19
2019-03-19T00:59:38.555Z,78.30
2019-03-19T01:01:44.907Z,78.39
2019-03-19T01:03:51.768Z,78.41
2019-03-19T01:05:58.149Z,78.20
2019-03-19T01:08:05.010Z,78.27
2019-03-19T01:10:17.616Z,78.33
2019-03-19T01:12:24.807Z,78.19
2019-03-19T01:14:31.377Z,78.30
2019-03-19T01:16:37.830Z,78.23
2019-03-19T01:18:44.201Z,78.27
2019-03-19T01:20:50.869Z,78.33
2019-03-19T01:22:57.320Z,78.45
2019-03-19T01:25:04.142Z,78.57
2019-03-19T01:27:10.676Z,78.87
2019-03-19T01:29:17.041Z,79.10
2019-03-19T01:31:23.707Z,79.30
2019-03-19T01:33:30.379Z,79.57
2019-03-19T01:35:37.766Z,79.90
2019-03-19T01:37:44.226Z,80.31
2019-03-19T01:39:50.580Z,80.78
2019-03-19T01:41:58.178Z,81.09
2019-03-19T01:44:04.648Z,81.26
2019-03-19T01:46:11.608Z,81.19
2019-03-19T01:48:18.497Z,80.96
2019-03-19T01:50:26.399Z,80.95
2019-03-19T01:52:32.860Z,81.08
2019-03-19T01:54:39.586Z,81.05
2019-03-19T01:56:46.871Z,81.05
2019-03-19T01:58:53.181Z,80.96
2019-03-19T02:00:59.948Z,81.02
2019-03-19T02:03:08.410Z,81.25
2019-03-19T02:05:15.056Z,81.61
2019-03-19T02:07:24.656Z,81.70
2019-03-19T02:09:31.435Z,81.95
2019-03-19T02:11:38.527Z,82.42
2019-03-19T02:13:45.223Z,82.62
2019-03-19T02:15:51.870Z,82.97
2019-03-19T02:17:58.309Z,83.03
2019-03-19T02:20:05.817Z,83.08
2019-03-19T02:22:12.178Z,83.21
2019-03-19T02:24:20.164Z,83.33
2019-03-19T02:26:26.843Z,83.57
2019-03-19T02:28:33.513Z,83.59
2019-03-19T02:30:41.301Z,83.85
2019-03-19T02:32:47.676Z,83.79
2019-03-19T02:34:54.235Z,84.11
2019-03-19T02:37:00.605Z,84.09
2019-03-19T02:39:08.469Z,84.39
2019-03-19T02:41:14.778Z,84.36
2019-03-19T02:43:22.784Z,84.72
2019-03-19T02:45:29.227Z,85.10
2019-03-19T02:47:36.712Z,85.07
2019-03-19T02:49:43.476Z,85.15
2019-03-19T02:51:49.911Z,84.80
2019-03-19T02:53:56.512Z,84.50
2019-03-19T02:56:02.880Z,84.16
2019-03-19T02:58:09.251Z,83.95
2019-03-19T03:00:18.630Z,83.60
2019-03-19T03:02:24.941Z,83.06
2019-03-19T03:04:31.304Z,82.72
2019-03-19T03:06:38.878Z,82.63
2019-03-19T03:08:45.253Z,82.39
2019-03-19T03:10:51.841Z,82.14
2019-03-19T03:12:58.186Z,82.12
2019-03-19T03:15:05.049Z,81.98
2019-03-19T03:17:11.572Z,81.76
2019-03-19T03:19:17.913Z,81.61
2019-03-19T03:21:24.452Z,81.66
2019-03-19T03:23:32.569Z,81.53
2019-03-19T03:25:39.313Z,81.51
2019-03-19T03:27:46.400Z,81.59
2019-03-19T03:29:52.678Z,81.56
2019-03-19T03:31:59.035Z,81.67
2019-03-19T03:34:05.599Z,81.91
2019-03-19T03:36:13.302Z,81.33
2019-03-19T03:38:19.856Z,81.36
2019-03-19T03:40:26.224Z,81.49
2019-03-19T03:42:32.897Z,81.78
2019-03-19T03:44:39.370Z,81.87
2019-03-19T03:46:45.918Z,81.16
2019-03-19T03:48:53.696Z,81.66
2019-03-19T03:51:00.087Z,81.15
2019-03-19T03:53:06.840Z,81.34
2019-03-19T03:55:18.646Z,81.11
2019-03-19T03:57:25.195Z,80.92
2019-03-19T03:59:31.790Z,81.03
2019-03-19T04:01:38.641Z,80.93
2019-03-19T04:03:45.709Z,80.64
2019-03-19T04:05:52.298Z,80.71
2019-03-19T04:07:58.834Z,81.40
2019-03-19T04:10:12.171Z,80.45
2019-03-19T04:12:24.770Z,80.50
2019-03-19T04:14:31.778Z,80.72
2019-03-19T04:16:38.143Z,80.87
2019-03-19T04:18:44.610Z,80.80
2019-03-19T04:20:51.182Z,82.14
2019-03-19T04:22:58.047Z,80.63
2019-03-19T04:25:05.722Z,80.59
2019-03-19T04:27:16.449Z,81.09
2019-03-19T04:29:20.091Z,80.60
2019-03-19T04:31:28.044Z,80.33
2019-03-19T04:33:34.467Z,80.62
2019-03-19T04:35:42.348Z,80.61
2019-03-19T04:37:50.467Z,80.54
2019-03-19T04:39:58.475Z,81.60
2019-03-19T04:42:06.478Z,80.10
2019-03-19T04:44:12.852Z,80.00
2019-03-19T04:46:19.305Z,80.27
2019-03-19T04:48:25.656Z,80.26
2019-03-19T04:50:32.129Z,80.38
2019-03-19T04:52:39.615Z,80.67
2019-03-19T04:54:46.072Z,80.36
2019-03-19T04:56:52.851Z,80.41
2019-03-19T04:58:59.212Z,80.33
2019-03-19T05:01:05.579Z,80.39
2019-03-19T05:03:12.028Z,80.30
2019-03-19T05:05:18.411Z,80.27
2019-03-19T05:07:25.188Z,79.99
2019-03-19T05:09:32.306Z,80.19
2019-03-19T05:11:38.705Z,79.88
2019-03-19T05:13:46.812Z,79.79
2019-03-19T05:15:53.188Z,80.72
2019-03-19T05:17:59.915Z,79.69
2019-03-19T05:20:10.312Z,79.62
2019-03-19T05:22:16.900Z,79.84
2019-03-19T05:24:24.862Z,80.13
2019-03-19T05:26:31.247Z,79.76
2019-03-19T05:28:39.347Z,79.68
2019-03-19T05:30:45.701Z,79.58
2019-03-19T05:32:52.064Z,79.69
2019-03-19T05:34:58.540Z,79.60
2019-03-19T05:37:05.101Z,80.04
2019-03-19T05:39:12.370Z,80.00
2019-03-19T05:41:18.745Z,79.25
2019-03-19T05:43:26.723Z,79.38
2019-03-19T05:45:33.100Z,79.32
2019-03-19T05:47:40.625Z,79.23
2019-03-19T05:49:47.756Z,79.46
2019-03-19T05:51:55.785Z,79.20
2019-03-19T05:54:02.152Z,79.16
2019-03-19T05:56:09.742Z,79.23
2019-03-19T05:58:16.403Z,79.51
2019-03-19T06:00:24.818Z,79.18
2019-03-19T06:02:31.383Z,79.02
2019-03-19T06:04:37.722Z,78.98
2019-03-19T06:06:44.104Z,78.46
2019-03-19T06:08:50.573Z,78.39
2019-03-19T06:10:57.353Z,77.98
2019-03-19T06:13:03.924Z,77.56
2019-03-19T06:15:15.782Z,77.41
2019-03-19T06:17:27.072Z,77.45
2019-03-19T06:19:34.806Z,77.45
2019-03-19T06:21:43.703Z,77.11
2019-03-19T06:23:50.409Z,76.99
2019-03-19T06:25:56.819Z,76.88
2019-03-19T06:28:04.785Z,76.53
2019-03-19T06:30:23.320Z,75.96
2019-03-19T06:32:33.929Z,75.78
2019-03-19T06:34:41.952Z,75.57
2019-03-19T06:36:48.531Z,75.30
2019-03-19T06:38:54.906Z,75.58
2019-03-19T06:41:01.444Z,74.84
2019-03-19T06:43:07.836Z,75.00
2019-03-19T06:45:19.605Z,75.06
2019-03-19T06:47:27.922Z,75.17
2019-03-19T06:49:34.363Z,74.45
2019-03-19T06:51:42.277Z,74.36
2019-03-19T06:53:49.478Z,73.55
2019-03-19T06:55:55.823Z,73.18
2019-03-19T06:58:11.016Z,73.41
2019-03-19T07:00:25.831Z,72.94
2019-03-19T07:02:33.903Z,72.10
2019-03-19T07:04:40.422Z,72.34
2019-03-19T07:06:46.792Z,72.54
2019-03-19T07:08:53.642Z,72.11
2019-03-19T07:11:00.004Z,72.23
2019-03-19T07:13:06.795Z,72.63
2019-03-19T07:15:25.445Z,73.25
2019-03-19T07:17:31.939Z,72.72
2019-03-19T07:19:38.494Z,72.88
2019-03-19T07:21:45.183Z,71.74
2019-03-19T07:23:51.702Z,72.00
2019-03-19T07:25:59.282Z,71.61
2019-03-19T07:28:08.649Z,70.31
2019-03-19T07:30:23.284Z,69.94
2019-03-19T07:32:31.082Z,70.01
2019-03-19T07:34:37.542Z,69.00
2019-03-19T07:36:43.912Z,68.51
2019-03-19T07:38:50.271Z,67.71
2019-03-19T07:40:57.152Z,68.25
2019-03-19T07:43:06.187Z,68.01
2019-03-19T07:45:25.913Z,68.55
2019-03-19T07:47:32.439Z,66.13
2019-03-19T07:49:40.023Z,67.17
2019-03-19T07:51:46.685Z,68.05
2019-03-19T07:53:53.141Z,67.30
2019-03-19T07:55:59.608Z,66.56
2019-03-19T07:58:06.600Z,66.67
2019-03-19T08:00:21.283Z,67.29
2019-03-19T08:02:28.678Z,66.25
2019-03-19T08:04:35.351Z,65.00
2019-03-19T08:06:41.746Z,64.48
2019-03-19T08:08:48.395Z,65.96
2019-03-19T08:10:54.896Z,63.71
2019-03-19T08:13:01.716Z,64.35
2019-03-19T08:15:14.440Z,63.03
2019-03-19T08:17:21.031Z,63.40
2019-03-19T08:19:29.495Z,61.29
2019-03-19T08:21:36.009Z,61.96
2019-03-19T08:23:43.663Z,62.07
2019-03-19T08:25:50.175Z,62.58
2019-03-19T08:28:00.615Z,62.22
2019-03-19T08:30:19.135Z,61.62
2019-03-19T08:32:25.567Z,61.43
2019-03-19T08:34:33.245Z,61.93
2019-03-19T08:36:41.358Z,60.32
2019-03-19T08:38:47.930Z,60.19
2019-03-19T08:40:56.436Z,60.15
2019-03-19T08:43:04.288Z,59.78
2019-03-19T08:45:23.587Z,59.01
2019-03-19T08:47:29.942Z,60.75
2019-03-19T08:49:38.060Z,57.54
2019-03-19T08:51:47.296Z,58.00
2019-03-19T08:53:53.853Z,58.73
2019-03-19T08:56:01.157Z,59.33
2019-03-19T08:58:07.910Z,57.30
2019-03-19T09:00:21.166Z,57.14
2019-03-19T09:02:27.496Z,56.32
2019-03-19T09:04:35.298Z,54.97
2019-03-19T09:06:41.766Z,55.68
2019-03-19T09:08:50.324Z,55.49
2019-03-19T09:10:56.331Z,56.40
2019-03-19T09:13:02.808Z,55.32
2019-03-19T09:15:15.591Z,55.58
2019-03-19T09:17:21.871Z,56.18
2019-03-19T09:19:28.231Z,55.48
2019-03-19T09:21:34.734Z,54.26
2019-03-19T09:23:41.178Z,55.10
2019-03-19T09:25:49.327Z,54.90
2019-03-19T09:27:55.732Z,53.84
2019-03-19T09:30:02.284Z,52.87
2019-03-19T09:32:10.086Z,52.85
2019-03-19T09:34:16.476Z,52.58
2019-03-19T09:36:23.466Z,52.92
2019-03-19T09:38:30.006Z,53.52
2019-03-19T09:40:36.574Z,53.77
2019-03-19T09:42:42.933Z,52.68
2019-03-19T09:44:58.230Z,52.09
2019-03-19T09:46:57.401Z,50.74
2019-03-19T09:49:03.877Z,51.40
2019-03-19T09:51:10.333Z,51.17
2019-03-19T09:53:18.654Z,50.76
2019-03-19T09:55:25.118Z,49.44
2019-03-19T09:57:31.677Z,50.29
2019-03-19T09:59:38.025Z,50.32
2019-03-19T10:01:44.667Z,50.85
2019-03-19T10:03:53.930Z,49.64
2019-03-19T10:06:00.310Z,50.44
2019-03-19T10:08:06.767Z,50.71
2019-03-19T10:10:24.203Z,50.82
2019-03-19T10:12:30.757Z,49.95
2019-03-19T10:14:37.218Z,46.22
2019-03-19T10:16:45.527Z,45.99
2019-03-19T10:18:51.997Z,47.53
2019-03-19T10:20:58.477Z,49.11
2019-03-19T10:23:04.940Z,49.14
2019-03-19T10:25:16.716Z,49.73
2019-03-19T10:27:23.180Z,48.93
2019-03-19T10:29:37.848Z,49.46
2019-03-19T10:31:39.805Z,49.36
2019-03-19T10:33:46.137Z,49.61
2019-03-19T10:35:55.607Z,49.41
2019-03-19T10:38:05.373Z,49.12
2019-03-19T10:40:20.366Z,48.65
2019-03-19T10:42:26.766Z,48.04
2019-03-19T10:44:33.111Z,47.80
2019-03-19T10:46:39.639Z,46.54
2019-03-19T10:48:46.374Z,46.12
2019-03-19T10:50:53.144Z,48.15
2019-03-19T10:52:59.486Z,49.26
2019-03-19T10:55:06.676Z,49.95
2019-03-19T10:57:13.522Z,49.21
2019-03-19T10:59:20.109Z,48.54
2019-03-19T11:01:26.477Z,48.25
2019-03-19T11:03:32.943Z,47.68
2019-03-19T11:05:39.507Z,46.35
2019-03-19T11:07:46.488Z,46.29
2019-03-19T11:09:52.955Z,47.41
2019-03-19T11:12:01.365Z,48.00
2019-03-19T11:14:08.037Z,47.98
2019-03-19T11:16:14.839Z,49.13
2019-03-19T11:18:21.587Z,48.01
2019-03-19T11:20:28.556Z,48.04
2019-03-19T11:22:35.899Z,47.46
2019-03-19T11:24:42.407Z,46.94
2019-03-19T11:26:48.980Z,43.17
2019-03-19T11:28:56.256Z,42.63
2019-03-19T11:31:02.717Z,43.38
2019-03-19T11:33:09.411Z,44.35
2019-03-19T11:35:16.585Z,44.90
2019-03-19T11:37:22.948Z,45.44
2019-03-19T11:39:29.287Z,46.41
2019-03-19T11:41:37.409Z,46.45
2019-03-19T11:43:44.188Z,46.94
2019-03-19T11:45:50.649Z,45.78
2019-03-19T11:48:00.180Z,44.23
2019-03-19T11:50:10.865Z,42.98
2019-03-19T11:52:17.727Z,41.74
2019-03-19T11:54:24.294Z,41.62
2019-03-19T11:56:32.169Z,42.55
2019-03-19T11:58:38.664Z,41.21
2019-03-19T12:00:47.588Z,41.48
2019-03-19T12:02:54.437Z,42.39
2019-03-19T12:05:01.027Z,43.18
2019-03-19T12:07:07.678Z,43.51
2019-03-19T12:09:14.164Z,42.36
2019-03-19T12:11:21.319Z,42.40
2019-03-19T12:13:28.400Z,41.19
2019-03-19T12:15:34.987Z,43.25
2019-03-19T12:17:43.075Z,42.67
2019-03-19T12:19:49.448Z,40.84
2019-03-19T12:21:56.942Z,43.10
2019-03-19T12:24:04.043Z,42.98
2019-03-19T12:26:10.780Z,40.85
2019-03-19T12:28:18.272Z,40.85
2019-03-19T12:30:26.549Z,40.71
2019-03-19T12:32:33.140Z,41.74
2019-03-19T12:34:40.764Z,41.47
2019-03-19T12:36:47.726Z,41.15
2019-03-19T12:38:54.186Z,41.67
2019-03-19T12:41:00.540Z,42.41
2019-03-19T12:43:09.886Z,43.99
2019-03-19T12:45:22.716Z,42.79
2019-03-19T12:47:29.649Z,42.37
2019-03-19T12:49:37.450Z,41.92
2019-03-19T12:51:46.908Z,42.83
2019-03-19T12:53:53.268Z,42.63
2019-03-19T12:55:59.784Z,42.75
2019-03-19T12:58:08.227Z,43.35
2019-03-19T13:00:34.224Z,42.90
2019-03-19T13:02:33.887Z,42.40
2019-03-19T13:04:40.350Z,42.64
2019-03-19T13:06:46.902Z,42.08
2019-03-19T13:08:53.533Z,42.79
2019-03-19T13:10:59.831Z,42.99
2019-03-19T13:13:06.647Z,42.75
2019-03-19T13:15:19.018Z,43.25
2019-03-19T13:17:25.092Z,42.25
2019-03-19T13:19:31.790Z,42.40
2019-03-19T13:21:39.896Z,41.77
2019-03-19T13:23:46.311Z,42.17
2019-03-19T13:25:52.655Z,42.91
2019-03-19T13:27:59.004Z,43.75
2019-03-19T13:30:17.055Z,43.82
2019-03-19T13:32:23.308Z,44.32
2019-03-19T13:34:29.794Z,45.08
2019-03-19T13:36:36.345Z,44.86
2019-03-19T13:38:45.823Z,45.46
2019-03-19T13:40:52.373Z,45.73
2019-03-19T13:42:58.731Z,46.47
2019-03-19T13:45:07.951Z,46.85
2019-03-19T13:47:15.776Z,48.72
2019-03-19T13:49:22.218Z,48.24
2019-03-19T13:51:28.563Z,48.29
2019-03-19T13:53:34.913Z,49.77
2019-03-19T13:55:41.457Z,52.60
2019-03-19T13:57:50.969Z,54.73
2019-03-19T14:00:00.343Z,56.08
2019-03-19T14:02:11.214Z,57.96
2019-03-19T14:04:21.035Z,59.47
2019-03-19T14:06:27.733Z,57.35
2019-03-19T14:08:37.106Z,59.52
2019-03-19T14:10:45.862Z,58.47
2019-03-19T14:12:54.502Z,59.67
2019-03-19T14:15:02.873Z,59.75
2019-03-19T14:17:15.522Z,58.90
2019-03-19T14:19:24.907Z,59.46
2019-03-19T14:21:33.235Z,59.14
2019-03-19T14:23:41.519Z,59.57
2019-03-19T14:25:50.247Z,59.38
2019-03-19T14:28:01.153Z,59.42
2019-03-19T14:30:17.318Z,59.18
2019-03-19T14:32:27.365Z,57.49
2019-03-19T14:34:37.118Z,57.33
2019-03-19T14:36:47.515Z,56.54
2019-03-19T14:38:55.090Z,54.46
2019-03-19T14:41:01.771Z,54.75
2019-03-19T14:43:08.921Z,52.11
2019-03-19T14:45:17.003Z,52.65
2019-03-19T14:47:23.544Z,52.39
2019-03-19T14:49:46.081Z,50.58
2019-03-19T14:51:45.907Z,50.97
2019-03-19T14:53:55.444Z,50.20
2019-03-19T14:56:06.295Z,50.48
2019-03-19T14:58:18.221Z,48.13
2019-03-19T15:00:30.496Z,48.74
2019-03-19T15:02:41.617Z,49.65
2019-03-19T15:04:49.620Z,48.85
2019-03-19T15:06:56.225Z,48.22
2019-03-19T15:09:03.469Z,49.72
2019-03-19T15:11:11.980Z,49.14
2019-03-19T15:13:21.449Z,49.15
2019-03-19T15:15:36.339Z,48.32
2019-03-19T15:17:49.629Z,48.22
2019-03-19T15:20:01.460Z,47.65
2019-03-19T15:22:12.895Z,49.05
2019-03-19T15:24:23.138Z,48.95
2019-03-19T15:26:39.821Z,49.48
2019-03-19T15:28:57.771Z,50.03
2019-03-19T15:31:10.888Z,49.68
2019-03-19T15:33:24.081Z,49.40
2019-03-19T15:35:33.296Z,49.47
2019-03-19T15:37:42.878Z,49.39
2019-03-19T15:39:52.134Z,49.14
2019-03-19T15:42:03.418Z,48.62
2019-03-19T15:44:11.239Z,48.52
2019-03-19T15:46:19.396Z,48.45
2019-03-19T15:48:34.024Z,48.77
2019-03-19T15:50:41.576Z,51.44
2019-03-19T15:52:48.625Z,52.35
2019-03-19T15:54:56.706Z,53.09
2019-03-19T15:57:03.548Z,53.75
2019-03-19T15:59:10.224Z,54.46
2019-03-19T16:01:18.323Z,54.86
2019-03-19T16:03:26.624Z,55.27
2019-03-19T16:05:34.067Z,55.68
2019-03-19T16:07:41.274Z,55.31
2019-03-19T16:09:47.927Z,54.53
2019-03-19T16:11:55.232Z,54.29
2019-03-19T16:14:03.924Z,54.99
2019-03-19T16:16:11.865Z,55.22
2019-03-19T16:18:19.005Z,54.87
2019-03-19T16:20:27.486Z,54.96
2019-03-19T16:22:34.493Z,55.21
2019-03-19T16:24:41.645Z,55.48
2019-03-19T16:26:48.649Z,55.87
2019-03-19T16:28:55.463Z,55.85
2019-03-19T16:31:02.864Z,56.15
2019-03-19T16:33:10.102Z,56.21
2019-03-19T16:35:17.213Z,56.48
2019-03-19T16:37:24.182Z,56.94
2019-03-19T16:39:35.225Z,57.43
2019-03-19T16:41:41.415Z,57.59
2019-03-19T16:43:48.403Z,57.52
2019-03-19T16:45:55.056Z,57.57
2019-03-19T16:48:01.753Z,57.79
2019-03-19T16:50:23.975Z,58.01
2019-03-19T16:52:31.152Z,58.25
2019-03-19T16:54:38.193Z,58.41
2019-03-19T16:56:45.953Z,58.64
2019-03-19T16:58:52.745Z,58.87
2019-03-19T17:00:59.983Z,59.10
2019-03-19T17:03:07.173Z,59.40
2019-03-19T17:05:14.614Z,59.78
2019-03-19T17:07:21.610Z,60.29
2019-03-19T17:09:28.462Z,60.42
2019-03-19T17:11:35.261Z,60.69
2019-03-19T17:13:42.192Z,60.73
2019-03-19T17:15:50.442Z,60.83
2019-03-19T17:17:58.902Z,61.06
2019-03-19T17:20:08.561Z,61.49
2019-03-19T17:22:16.005Z,61.65
2019-03-19T17:24:23.718Z,62.15
2019-03-19T17:26:31.123Z,63.28
2019-03-19T17:28:38.334Z,64.14
2019-03-19T17:30:45.643Z,64.32
2019-03-19T17:32:53.133Z,64.38
2019-03-19T17:35:00.524Z,64.86
2019-03-19T17:37:09.134Z,65.24
2019-03-19T17:39:15.988Z,65.67
2019-03-19T17:41:22.954Z,66.01
2019-03-19T17:43:32.769Z,66.50
2019-03-19T17:45:39.318Z,66.83
2019-03-19T17:47:51.097Z,67.14
2019-03-19T17:50:02.936Z,67.28
2019-03-19T17:52:15.628Z,67.55
2019-03-19T17:54:26.772Z,67.63
2019-03-19T17:56:40.708Z,68.06
2019-03-19T17:58:49.158Z,68.22
2019-03-19T18:00:57.333Z,68.57
2019-03-19T18:03:04.277Z,69.00
2019-03-19T18:05:12.077Z,69.21
2019-03-19T18:07:18.953Z,69.70
2019-03-19T18:09:26.478Z,70.07
2019-03-19T18:11:33.908Z,70.43
2019-03-19T18:13:41.020Z,70.75
2019-03-19T18:15:48.169Z,71.08
2019-03-19T18:17:55.154Z,71.48
2019-03-19T18:20:02.105Z,71.83
2019-03-19T18:22:10.108Z,72.02
2019-03-19T18:24:17.161Z,72.24
2019-03-19T18:26:24.304Z,72.42
2019-03-19T18:28:31.277Z,72.65
2019-03-19T18:30:39.134Z,72.62
2019-03-19T18:32:47.519Z,72.78
2019-03-19T18:34:55.118Z,72.85
2019-03-19T18:37:02.637Z,72.85
2019-03-19T18:39:10.185Z,73.02
2019-03-19T18:41:17.818Z,73.08
2019-03-19T18:43:25.038Z,73.10
2019-03-19T18:45:33.715Z,73.39
2019-03-19T18:47:41.449Z,73.30
2019-03-19T18:49:48.738Z,73.33
2019-03-19T18:51:56.477Z,73.43
2019-03-19T18:54:03.658Z,73.49
2019-03-19T18:56:10.797Z,73.35
2019-03-19T18:58:17.725Z,73.32
2019-03-19T19:00:25.459Z,73.36
2019-03-19T19:02:32.518Z,73.27
2019-03-19T19:04:40.124Z,73.20
2019-03-19T19:06:47.566Z,72.94
2019-03-19T19:08:54.618Z,72.94
2019-03-19T19:11:02.059Z,72.82
2019-03-19T19:13:09.325Z,72.81
2019-03-19T19:15:26.719Z,72.71
2019-03-19T19:17:34.277Z,72.70
2019-03-19T19:19:41.438Z,72.73
2019-03-19T19:21:50.118Z,72.35
2019-03-19T19:23:59.493Z,72.24
2019-03-19T19:26:07.668Z,72.29
2019-03-19T19:28:15.037Z,72.03
2019-03-19T19:30:28.318Z,72.20
2019-03-19T19:32:36.809Z,72.24
2019-03-19T19:34:43.843Z,72.44
2019-03-19T19:36:52.301Z,72.47
2019-03-19T19:39:00.220Z,72.62
2019-03-19T19:41:09.044Z,72.87
2019-03-19T19:43:17.607Z,73.14
2019-03-19T19:45:25.118Z,73.12
2019-03-19T19:47:34.293Z,73.29
2019-03-19T19:49:45.097Z,73.63
2019-03-19T19:51:54.164Z,73.79
2019-03-19T19:54:01.339Z,74.02
2019-03-19T19:56:08.517Z,74.44
2019-03-19T19:58:15.547Z,74.54
2019-03-19T20:00:25.978Z,74.85
2019-03-19T20:02:33.117Z,75.18
2019-03-19T20:04:42.177Z,75.51
2019-03-19T20:06:50.717Z,75.99
2019-03-19T20:08:59.762Z,76.44
2019-03-19T20:11:12.137Z,76.81
2019-03-19T20:13:21.848Z,77.01
2019-03-19T20:15:29.295Z,77.33
2019-03-19T20:17:36.897Z,77.53
2019-03-19T20:19:44.162Z,77.86
2019-03-19T20:21:51.378Z,78.68
2019-03-19T20:23:59.278Z,78.95
2019-03-19T20:26:06.508Z,78.95
2019-03-19T20:28:13.675Z,79.07
2019-03-19T20:30:22.524Z,79.41
2019-03-19T20:32:30.574Z,79.33
2019-03-19T20:34:46.653Z,79.39
2019-03-19T20:36:55.110Z,79.59
2019-03-19T20:39:02.978Z,79.82
2019-03-19T20:41:11.569Z,79.97
2019-03-19T20:43:19.305Z,80.13
2019-03-19T20:45:29.355Z,80.35
2019-03-19T20:47:38.127Z,80.54
2019-03-19T20:49:47.786Z,80.89
2019-03-19T20:51:56.812Z,81.28
2019-03-19T20:54:07.620Z,81.37
2019-03-19T20:56:17.490Z,81.22
2019-03-19T20:58:29.191Z,81.67
2019-03-19T21:00:42.263Z,81.61
2019-03-19T21:02:57.626Z,81.40
2019-03-19T21:05:07.810Z,81.75
2019-03-19T21:07:15.657Z,81.62
2019-03-19T21:09:23.601Z,82.04
2019-03-19T21:11:32.388Z,81.97
2019-03-19T21:13:40.323Z,81.94
2019-03-19T21:15:48.101Z,82.00
2019-03-19T21:17:56.879Z,82.15
2019-03-19T21:20:06.138Z,82.08
2019-03-19T21:22:13.809Z,82.32
2019-03-19T21:24:21.507Z,82.38
2019-03-19T21:26:30.028Z,82.49
2019-03-19T21:28:38.742Z,82.43
2019-03-19T21:30:46.702Z,82.45
2019-03-19T21:32:54.300Z,82.75
2019-03-19T21:35:02.326Z,82.76
2019-03-19T21:37:11.077Z,82.90
2019-03-19T21:39:19.125Z,83.01
2019-03-19T21:41:26.437Z,83.12
2019-03-19T21:43:34.067Z,83.18
2019-03-19T21:45:42.196Z,83.40
2019-03-19T21:47:49.602Z,83.54
2019-03-19T21:49:56.837Z,83.68
2019-03-19T21:52:03.966Z,83.82
2019-03-19T21:54:13.497Z,83.97
2019-03-19T21:56:23.994Z,84.09
2019-03-19T21:58:33.891Z,84.28
2019-03-19T22:00:44.087Z,84.38
2019-03-19T22:02:50.979Z,84.54
2019-03-19T22:05:01.695Z,84.76
2019-03-19T22:07:13.016Z,84.96
2019-03-19T22:09:21.560Z,85.18
2019-03-19T22:11:29.735Z,85.42
2019-03-19T22:13:36.534Z,85.64
2019-03-19T22:15:44.868Z,86.09
2019-03-19T22:17:51.923Z,86.48
2019-03-19T22:20:01.684Z,86.65
2019-03-19T22:22:08.928Z,86.50
2019-03-19T22:24:28.071Z,86.77
2019-03-19T22:26:34.468Z,86.70
2019-03-19T22:28:41.287Z,86.84
2019-03-19T22:30:47.683Z,86.93
2019-03-19T22:32:54.614Z,86.79
2019-03-19T22:35:01.197Z,87.05
2019-03-19T22:37:09.487Z,87.07
2019-03-19T22:39:16.020Z,87.06
2019-03-19T22:41:22.894Z,87.08
2019-03-19T22:43:30.509Z,87.02
2019-03-19T22:45:36.841Z,87.02
2019-03-19T22:47:43.891Z,86.92
2019-03-19T22:49:50.267Z,86.76
2019-03-19T22:51:56.875Z,86.56
2019-03-19T22:54:05.062Z,86.40
2019-03-19T22:56:11.749Z,86.27
2019-03-19T22:58:18.273Z,86.17
2019-03-19T23:00:34.190Z,86.02
2019-03-19T23:02:45.736Z,85.83
2019-03-19T23:04:57.780Z,85.69
2019-03-19T23:07:08.751Z,85.70
2019-03-19T23:09:16.567Z,85.63
2019-03-19T23:11:25.676Z,85.67
2019-03-19T23:13:34.293Z,85.66
2019-03-19T23:15:42.495Z,85.70
2019-03-19T23:17:49.050Z,85.64
2019-03-19T23:19:58.827Z,85.66
2019-03-19T23:22:06.622Z,85.83
2019-03-19T23:24:13.155Z,85.87
2019-03-19T23:26:20.747Z,86.01
2019-03-19T23:28:28.049Z,86.08
2019-03-19T23:30:36.135Z,86.17
2019-03-19T23:32:43.823Z,86.27
2019-03-19T23:34:51.534Z,86.30
2019-03-19T23:36:58.198Z,86.33
2019-03-19T23:39:07.137Z,86.34
2019-03-19T23:41:13.688Z,86.29
2019-03-19T23:43:21.692Z,86.32
2019-03-19T23:45:28.150Z,86.28
2019-03-19T23:47:37.228Z,86.37
2019-03-19T23:49:44.060Z,86.44
2019-03-19T23:51:50.403Z,86.26
2019-03-19T23:53:58.528Z,86.29
2019-03-19T23:56:06.501Z,86.33
2019-03-19T23:58:12.977Z,86.34
